Peoria, IL (61603)

12:56 AM CDT op 29 juli 2016 (GMT -0500)
DracoPhyre PWS | | Change Station

Hoogte 640 ft 40.72 °N, 89.59 °W | Updated 16 seconds ago

Partly Cloudy
Gedeeltelijk bewolkt
71.4 °F
Voelt als 71.4 °F
N
0.0
Wind Variabel Wind van zuid
Gusts 2.2 mijl/u

Vandaag
Hoog -- | Laag -- °F
--% Kans op neerslag
Gisteren
Hoog -- | Laag -- °F
Precip. -- inches
Druk 29.90 inches
Zicht 10.0 mijlen
Wolken Gering 3800 ft
Dauwpunt 71 °F
Vochtigheid 99%
Neerslag 0.00 inches
Dikte sneeuw Niet beschikbaar.
5:52 AM 8:16 PM
Afnemende halvemaan, 25% visible
METAR KPIA 290454Z 00000KT 10SM FEW038 23/21 A2992 RMK AO2 SLP125 T02280206
Druk 29.90 inches
Zicht 10.0 mijlen
Wolken Gering 3800 ft
Dauwpunt 71 °F
Vochtigheid 99%
Neerslag 0.00 inches
Dikte sneeuw Niet beschikbaar.
5:52 AM 8:16 PM
Afnemende halvemaan, 25% visible
METAR KPIA 290454Z 00000KT 10SM FEW038 23/21 A2992 RMK AO2 SLP125 T02280206

10-Day Weather Forecast

Almanac

Astronomie

Jul. 29, 2016 Opkomst Ondergang
Werkelijke tijd
Burgerlijke schemering
Nautische schemering
Astronomische schemering
Maan
Golflengte van het zichtbare licht
Daglengte
Tomorrow will be .
, % of the Moon is Illuminated

Extremen vandaag

State Highs State Lows

Community

WunderPhotos

Upload Photos

1,928,299 foto’s ge-upload!

WunderBlog® & News

Nearby

Luchtkwaliteit

  Luchtkwaliteit LK-index Verontreinigende stof
Not available.

Dikte sneeuw

Station Depth Geometrische hoogte

Aardbevingen

Stad Distance Mag. Time & Date
Minimum magnitude displayed is 2.5.

Watertemperatuur langs de kust

Plaats Temperatuur

Stations

Nabije weerstations

Locatie station Temp. Gevoelstemperatuur Dauwpunt Vochtigheid Wind Precip. Hoogte Geactualiseerd Type
                   

Watches & Warnings

There are currently no watches in effect.